Time;durP1;ratioP1;P1;durP2;ratioP2;P2;SDS_P1;SDS_P2;PMS_P1;PMS_P2;Temp;Humidity;BMP_temperature;BMP_pressure;BME280_temperature;BME280_humidity;BME280_pressure;Samples;Min_cycle;Max_cycle;Signal;HPM_P1;HPM_P2
2022/08/05 00:00:15;;;;;;;9.83;7.67;;;;;;;21.06;100.00;100136.09;1845042;77;21124;-63
2022/08/05 00:02:43;;;;;;;8.63;7.60;;;;;;;21.05;100.00;100133.97;1845335;77;21209;-62
2022/08/05 00:05:10;;;;;;;10.50;7.97;;;;;;;20.95;100.00;100144.52;1850666;77;20895;-64
2022/08/05 00:07:37;;;;;;;9.93;8.20;;;;;;;20.99;100.00;100131.03;1849792;77;20911;-62
2022/08/05 00:10:05;;;;;;;9.40;8.23;;;;;;;20.97;100.00;100136.30;1851024;77;20970;-61
2022/08/05 00:12:32;;;;;;;9.43;8.13;;;;;;;20.95;100.00;100143.70;1850872;77;21524;-60
2022/08/05 00:15:00;;;;;;;10.63;8.67;;;;;;;20.87;100.00;100136.52;1851424;77;21236;-70
2022/08/05 00:17:27;;;;;;;12.27;10.30;;;;;;;20.92;100.00;100138.92;1850643;77;21519;-61
2022/08/05 00:19:55;;;;;;;10.63;9.53;;;;;;;20.77;100.00;100139.61;1850069;77;21217;-61
2022/08/05 00:22:22;;;;;;;9.73;8.83;;;;;;;20.85;100.00;100139.93;1850444;77;22464;-60
2022/08/05 00:24:49;;;;;;;10.07;8.77;;;;;;;20.93;100.00;100140.52;1850691;77;21069;-59
2022/08/05 00:27:16;;;;;;;9.57;8.40;;;;;;;20.81;100.00;100144.67;1849673;77;21090;-61
2022/08/05 00:29:43;;;;;;;11.27;9.37;;;;;;;20.84;100.00;100142.31;1850518;77;21337;-61
2022/08/05 00:32:11;;;;;;;13.07;8.90;;;;;;;20.84;100.00;100146.82;1850190;77;20915;-60
2022/08/05 00:34:40;;;;;;;11.57;8.93;;;;;;;20.75;100.00;100141.17;1850501;77;21027;-60
2022/08/05 00:37:07;;;;;;;12.17;8.90;;;;;;;20.74;100.00;100141.44;1849998;77;20999;-60
2022/08/05 00:39:35;;;;;;;10.40;8.83;;;;;;;20.73;100.00;100135.87;1851050;77;21238;-60
2022/08/05 00:42:02;;;;;;;11.33;9.40;;;;;;;20.61;100.00;100137.37;1849614;77;20953;-64
2022/08/05 00:44:29;;;;;;;11.53;8.97;;;;;;;20.64;100.00;100135.52;1850092;77;21054;-64
2022/08/05 00:46:56;;;;;;;9.60;8.70;;;;;;;20.65;100.00;100128.66;1849636;77;21249;-61
2022/08/05 00:49:24;;;;;;;9.70;8.70;;;;;;;20.73;100.00;100118.66;1850774;77;21284;-60
2022/08/05 00:51:51;;;;;;;11.13;9.30;;;;;;;20.72;100.00;100115.70;1850467;77;21120;-60
2022/08/05 00:54:19;;;;;;;11.17;9.57;;;;;;;20.77;100.00;100125.83;1849865;77;20968;-60
2022/08/05 00:56:47;;;;;;;9.83;8.83;;;;;;;20.62;100.00;100115.91;1849898;77;21422;-61
2022/08/05 00:59:14;;;;;;;10.43;8.90;;;;;;;20.67;100.00;100115.68;1850516;77;21155;-62
2022/08/05 01:01:42;;;;;;;10.70;9.53;;;;;;;20.65;100.00;100111.97;1851224;77;21437;-60
2022/08/05 01:04:09;;;;;;;10.90;9.77;;;;;;;20.76;100.00;100106.20;1848321;77;22609;-63
2022/08/05 01:06:38;;;;;;;10.90;9.80;;;;;;;20.81;100.00;100106.26;1843810;77;21292;-60
2022/08/05 01:09:05;;;;;;;12.93;10.03;;;;;;;20.82;100.00;100110.50;1845134;77;21017;-60
2022/08/05 01:11:34;;;;;;;11.33;10.03;;;;;;;20.76;100.00;100101.73;1845452;77;21019;-62
2022/08/05 01:14:34;;;;;;;12.00;9.30;;;;;;;20.70;100.00;100109.35;1813431;77;21317;-60
2022/08/05 01:17:26;;;;;;;12.47;10.40;;;;;;;20.62;100.00;100111.94;1845256;77;21208;-62
2022/08/05 01:20:30;;;;;;;10.83;9.73;;;;;;;20.82;100.00;100113.94;1844283;77;20959;-61
2022/08/05 01:23:25;;;;;;;13.20;10.83;;;;;;;20.75;100.00;100124.48;1845113;77;20980;-68
2022/08/05 01:26:29;;;;;;;13.00;10.43;;;;;;;20.79;100.00;100128.22;1844904;77;20980;-60
2022/08/05 01:29:02;;;;;;;11.77;9.37;;;;;;;20.82;100.00;100117.12;1844815;77;20974;-60
2022/08/05 01:31:40;;;;;;;10.93;9.20;;;;;;;20.74;100.00;100113.62;1845989;77;21422;-60
2022/08/05 01:34:14;;;;;;;13.03;9.47;;;;;;;20.68;100.00;100107.47;1844211;77;21434;-62
2022/08/05 01:36:54;;;;;;;10.03;9.03;;;;;;;20.73;100.00;100104.87;1844566;77;20907;-60
2022/08/05 01:39:22;;;;;;;10.07;9.07;;;;;;;20.84;100.00;100115.03;1845654;77;20884;-62
2022/08/05 01:41:49;;;;;;;10.87;9.10;;;;;;;20.87;100.00;100116.64;1843972;77;21080;-67
2022/08/05 01:44:16;;;;;;;11.53;9.37;;;;;;;20.94;100.00;100120.38;1844794;77;21767;-61
2022/08/05 01:46:43;;;;;;;10.13;8.30;;;;;;;20.87;100.00;100114.50;1844813;77;20976;-60
2022/08/05 01:49:15;;;;;;;10.00;9.03;;;;;;;20.89;100.00;100123.80;1844932;77;21476;-60
2022/08/05 01:51:42;;;;;;;11.47;9.40;;;;;;;20.86;100.00;100122.18;1842449;77;20998;-61
2022/08/05 01:54:10;;;;;;;9.37;8.27;;;;;;;20.91;100.00;100124.88;1844184;77;21017;-61
2022/08/05 01:56:39;;;;;;;10.57;8.87;;;;;;;20.90;100.00;100126.71;1844386;77;21126;-61
2022/08/05 01:59:08;;;;;;;11.57;9.93;;;;;;;20.84;100.00;100132.25;1844471;77;20900;-62
2022/08/05 02:01:36;;;;;;;10.63;8.67;;;;;;;20.65;100.00;100136.61;1811442;77;21563;-62
2022/08/05 02:04:04;;;;;;;10.20;8.77;;;;;;;20.73;100.00;100132.69;1845222;77;21245;-64
2022/08/05 02:06:31;;;;;;;10.73;8.83;;;;;;;20.80;100.00;100135.13;1850640;77;21030;-60
2022/08/05 02:08:59;;;;;;;11.33;9.37;;;;;;;20.78;100.00;100139.88;1850132;77;22163;-61
2022/08/05 02:11:48;;;;;;;10.30;9.30;;;;;;;20.80;100.00;100142.55;1850493;77;20982;-63
2022/08/05 02:14:20;;;;;;;11.90;9.43;;;;;;;20.83;100.00;100148.64;1850588;77;21007;-60
2022/08/05 02:16:52;;;;;;;10.07;8.97;;;;;;;20.78;100.00;100147.82;1849247;77;20985;-62
2022/08/05 02:19:35;;;;;;;10.00;8.83;;;;;;;20.71;100.00;100137.95;1850040;77;20980;-62
2022/08/05 02:22:22;;;;;;;11.13;9.10;;;;;;;20.65;100.00;100137.92;1850081;77;22329;-60
2022/08/05 02:24:54;;;;;;;10.27;7.93;;;;;;;20.74;100.00;100141.44;1849667;77;20966;-64
2022/08/05 02:27:21;;;;;;;12.17;9.00;;;;;;;20.79;100.00;100148.09;1850478;77;20982;-62
2022/08/05 02:29:48;;;;;;;10.93;8.73;;;;;;;20.81;100.00;100148.11;1849809;77;21465;-61
2022/08/05 02:32:17;;;;;;;9.03;8.10;;;;;;;20.88;100.00;100150.56;1850529;77;21905;-61
2022/08/05 02:34:45;;;;;;;10.60;8.47;;;;;;;20.93;100.00;100143.17;1819370;77;21146;-68
2022/08/05 02:37:12;;;;;;;10.63;8.77;;;;;;;20.85;100.00;100141.78;1850443;77;21120;-60
2022/08/05 02:39:40;;;;;;;9.73;8.73;;;;;;;20.94;100.00;100144.22;1850983;77;20986;-61
2022/08/05 02:42:07;;;;;;;9.60;8.60;;;;;;;21.03;100.00;100143.25;1849421;77;20911;-63
2022/08/05 02:44:36;;;;;;;12.27;9.40;;;;;;;21.08;100.00;100158.64;1850012;77;21033;-62
2022/08/05 02:47:06;;;;;;;11.10;8.63;;;;;;;21.13;100.00;100156.55;1850163;77;21252;-60
2022/08/05 02:49:35;;;;;;;11.07;8.57;;;;;;;21.16;100.00;100157.90;1820374;77;20991;-61
2022/08/05 02:52:04;;;;;;;9.73;8.73;;;;;;;21.16;100.00;100150.74;1850482;77;20868;-67
2022/08/05 02:54:32;;;;;;;9.57;8.27;;;;;;;21.20;100.00;100150.50;1850068;77;21429;-62
2022/08/05 02:56:59;;;;;;;9.00;8.07;;;;;;;21.20;100.00;100164.28;1850855;77;21017;-60
2022/08/05 02:59:27;;;;;;;10.23;7.87;;;;;;;21.30;100.00;100159.85;1851149;77;21056;-60
2022/08/05 03:01:59;;;;;;;9.10;7.90;;;;;;;21.38;100.00;100155.95;1851646;77;20860;-61
2022/08/05 03:04:23;;;;;;;12.97;7.97;;;;;;;21.44;100.00;100156.26;1847855;77;20991;-62
2022/08/05 03:06:51;;;;;;;9.53;8.23;;;;;;;21.44;100.00;100156.76;1845474;77;21593;-60
2022/08/05 03:09:19;;;;;;;10.63;8.33;;;;;;;21.47;100.00;100165.00;1845174;77;21556;-60
2022/08/05 03:11:46;;;;;;;9.83;7.47;;;;;;;21.49;100.00;100164.23;1844799;77;21774;-59
2022/08/05 03:14:14;;;;;;;10.13;7.47;;;;;;;21.54;100.00;100164.25;1844179;77;20924;-61
2022/08/05 03:16:41;;;;;;;9.23;7.33;;;;;;;21.57;100.00;100157.11;1843737;77;20989;-61
2022/08/05 03:19:08;;;;;;;10.13;7.63;;;;;;;21.61;100.00;100159.52;1844745;77;21046;-61
2022/08/05 03:21:36;;;;;;;11.53;8.00;;;;;;;21.67;100.00;100149.73;1844819;77;21105;-59
2022/08/05 03:24:03;;;;;;;8.00;7.00;;;;;;;21.70;100.00;100155.03;1844377;77;21532;-61
2022/08/05 03:26:31;;;;;;;8.53;6.63;;;;;;;21.76;100.00;100151.36;1844583;77;21394;-59
2022/08/05 03:28:58;;;;;;;9.07;6.60;;;;;;;21.80;100.00;100151.10;1844245;77;21117;-64
2022/08/05 03:31:25;;;;;;;7.63;6.47;;;;;;;21.86;100.00;100146.09;1844520;77;21520;-60
2022/08/05 03:33:53;;;;;;;8.90;7.00;;;;;;;21.91;100.00;100150.08;1844917;77;20916;-59
2022/08/05 03:36:21;;;;;;;9.23;7.10;;;;;;;21.76;100.00;100144.72;1844153;77;21119;-61
2022/08/05 03:38:48;;;;;;;8.50;7.60;;;;;;;21.77;100.00;100153.73;1844280;77;20982;-62
2022/08/05 03:41:16;;;;;;;8.23;6.90;;;;;;;21.97;100.00;100148.23;1844737;77;21481;-59
2022/08/05 03:43:43;;;;;;;7.77;6.40;;;;;;;22.00;100.00;100149.83;1844763;77;21019;-59
2022/08/05 03:46:10;;;;;;;9.50;6.83;;;;;;;22.07;100.00;100157.02;1844556;77;21054;-61
2022/08/05 03:48:38;;;;;;;9.27;7.30;;;;;;;22.15;100.00;100158.94;1843766;77;21724;-61
2022/08/05 03:51:14;;;;;;;9.03;7.23;;;;;;;22.16;100.00;100160.02;1844207;77;21369;-59
2022/08/05 03:53:54;;;;;;;9.30;7.13;;;;;;;22.19;100.00;100158.14;1844585;77;21493;-59
2022/08/05 03:56:32;;;;;;;10.37;6.80;;;;;;;22.20;100.00;100164.25;1843832;77;21011;-63
2022/08/05 03:59:03;;;;;;;8.27;6.50;;;;;;;22.18;100.00;100170.36;1844637;77;21790;-59
2022/08/05 04:01:30;;;;;;;10.60;7.63;;;;;;;22.20;100.00;100169.56;1844831;77;21259;-59
2022/08/05 04:03:58;;;;;;;9.43;6.97;;;;;;;22.28;100.00;100169.86;1844975;77;20857;-61
2022/08/05 04:06:25;;;;;;;10.67;7.23;;;;;;;22.19;100.00;100174.08;1845082;77;20970;-58
2022/08/05 04:08:53;;;;;;;8.23;6.80;;;;;;;22.29;100.00;100175.97;1813328;77;20982;-59
2022/08/05 04:11:21;;;;;;;10.40;7.00;;;;;;;22.36;100.00;100180.50;1813343;77;21019;-59
2022/08/05 04:13:48;;;;;;;8.73;7.00;;;;;;;22.37;100.00;100183.41;1845193;77;21029;-58
2022/08/05 04:16:15;;;;;;;7.20;6.50;;;;;;;22.43;100.00;100177.59;1843686;77;20982;-63
2022/08/05 04:18:44;;;;;;;7.63;6.63;;;;;;;22.40;100.00;100180.24;1844595;77;21807;-60
2022/08/05 04:21:11;;;;;;;11.73;7.10;;;;;;;22.48;100.00;100182.38;1844261;77;21877;-59
2022/08/05 04:23:38;;;;;;;8.70;6.83;;;;;;;22.46;100.00;100183.16;1844616;77;21476;-58
2022/08/05 04:26:06;;;;;;;9.90;7.97;;;;;;;22.56;100.00;100185.83;1844341;77;21282;-66
2022/08/05 04:28:33;;;;;;;11.00;7.27;;;;;;;22.67;100.00;100183.20;1844487;77;21655;-62
2022/08/05 04:31:00;;;;;;;12.60;7.23;;;;;;;22.70;100.00;100186.66;1844782;77;21382;-58
2022/08/05 04:33:28;;;;;;;7.83;6.27;;;;;;;22.77;100.00;100184.54;1844955;77;21070;-60
2022/08/05 04:35:55;;;;;;;7.30;6.00;;;;;;;22.80;100.00;100175.47;1845291;77;21028;-58
2022/08/05 04:38:22;;;;;;;11.30;6.03;;;;;;;22.85;100.00;100181.34;1844759;77;21222;-60
2022/08/05 04:40:50;;;;;;;8.47;6.03;;;;;;;22.96;100.00;100169.67;1844228;77;21501;-59
2022/08/05 04:43:17;;;;;;;8.13;6.37;;;;;;;23.08;100.00;100165.95;1844548;77;21426;-60
2022/08/05 04:45:44;;;;;;;9.07;6.73;;;;;;;23.01;100.00;100170.99;1844984;77;20974;-58
2022/08/05 04:48:13;;;;;;;8.90;6.13;;;;;;;23.05;100.00;100166.73;1843727;77;20972;-66
2022/08/05 04:50:47;;;;;;;8.87;6.10;;;;;;;23.13;100.00;100164.06;1844413;77;21378;-59
2022/08/05 04:53:15;;;;;;;7.90;5.97;;;;;;;23.21;100.00;100164.84;1845180;77;21016;-58
2022/08/05 04:55:44;;;;;;;7.93;6.03;;;;;;;23.24;100.00;100171.49;1844604;77;20972;-57
2022/08/05 04:58:13;;;;;;;7.87;6.10;;;;;;;23.31;100.00;100172.02;1843649;77;21038;-58
2022/08/05 05:00:40;;;;;;;7.77;6.60;;;;;;;23.37;100.00;100166.14;1844734;77;21018;-58
2022/08/05 05:03:08;;;;;;;8.00;6.30;;;;;;;23.49;100.00;100162.13;1843692;77;21118;-58
2022/08/05 05:05:35;;;;;;;8.40;6.57;;;;;;;23.61;100.00;100163.69;1847326;77;21862;-59
2022/08/05 05:08:09;;;;;;;8.10;6.10;;;;;;;23.61;100.00;100162.36;1850048;77;21087;-66
2022/08/05 05:10:45;;;;;;;8.97;6.67;;;;;;;23.70;100.00;100165.53;1850730;77;20966;-58
2022/08/05 05:13:16;;;;;;;8.50;6.77;;;;;;;23.74;100.00;100164.45;1850600;77;21512;-58
2022/08/05 05:15:44;;;;;;;10.82;7.03;;;;;;;23.76;100.00;100163.66;1850565;77;21852;-58
2022/08/05 05:18:16;;;;;;;6.87;5.67;;;;;;;23.85;100.00;100167.34;1849868;77;21426;-58
2022/08/05 05:20:43;;;;;;;7.20;6.17;;;;;;;23.75;100.00;100167.37;1850397;77;20982;-62
2022/08/05 05:23:12;;;;;;;6.70;6.00;;;;;;;23.78;100.00;100167.62;1850078;77;21486;-58
2022/08/05 05:25:43;;;;;;;7.57;6.20;;;;;;;23.85;100.00;100166.01;1850626;77;21035;-57
2022/08/05 05:28:10;;;;;;;6.50;5.72;;;;;;;23.78;100.00;100162.84;1850378;77;21489;-59
2022/08/05 05:30:38;;;;;;;6.27;5.30;;;;;;;23.96;100.00;100163.56;1850453;77;21059;-59
2022/08/05 05:33:06;;;;;;;10.37;6.30;;;;;;;24.01;100.00;100166.19;1850154;77;20951;-58
2022/08/05 05:35:35;;;;;;;7.17;6.37;;;;;;;24.00;100.00;100163.81;1850164;77;21029;-60
2022/08/05 05:38:03;;;;;;;8.90;5.97;;;;;;;23.99;100.00;100168.34;1850321;77;21101;-57
2022/08/05 05:40:31;;;;;;;10.50;7.13;;;;;;;24.02;100.00;100168.34;1850503;77;21218;-57
2022/08/05 05:42:58;;;;;;;7.23;6.20;;;;;;;24.02;100.00;100156.36;1850241;77;21013;-61
2022/08/05 05:45:25;;;;;;;7.77;6.13;;;;;;;24.15;100.00;100154.41;1850400;77;21505;-59
2022/08/05 05:47:52;;;;;;;7.40;6.00;;;;;;;24.16;100.00;100153.86;1849935;77;21783;-59
2022/08/05 05:50:20;;;;;;;7.70;6.47;;;;;;;24.13;100.00;100151.74;1851129;77;21820;-60
2022/08/05 05:52:47;;;;;;;7.33;6.00;;;;;;;24.17;100.00;100162.11;1850460;77;21111;-58
2022/08/05 05:55:16;;;;;;;7.40;6.10;;;;;;;24.25;100.00;100161.01;1850776;77;21019;-66
2022/08/05 05:57:45;;;;;;;8.73;6.20;;;;;;;24.31;100.00;100168.42;1850047;77;21037;-59
2022/08/05 06:00:18;;;;;;;8.77;6.60;;;;;;;24.28;100.00;100178.28;1851234;77;21307;-58
2022/08/05 06:02:46;;;;;;;7.73;5.97;;;;;;;24.40;100.00;100183.33;1851508;77;20970;-58
2022/08/05 06:05:15;;;;;;;6.13;5.53;;;;;;;24.38;100.00;100189.43;1851266;77;22180;-59
2022/08/05 06:07:42;;;;;;;8.43;7.07;;;;;;;24.73;100.00;100179.08;1850241;77;20976;-58
2022/08/05 06:10:09;;;;;;;7.30;6.60;;;;;;;25.13;100.00;100177.17;1851174;77;21031;-59
2022/08/05 06:12:37;;;;;;;7.77;6.67;;;;;;;25.59;100.00;100184.69;1851105;77;20880;-58
2022/08/05 06:15:06;;;;;;;7.25;6.45;;;;;;;26.12;100.00;100195.27;1851272;77;20895;-58
2022/08/05 06:17:33;;;;;;;6.53;5.92;;;;;;;26.85;100.00;100193.39;1850065;77;21217;-59
2022/08/05 06:20:00;;;;;;;9.05;5.70;;;;;;;27.58;100.00;100181.69;1850651;77;22180;-58
2022/08/05 06:22:30;;;;;;;6.08;4.97;;;;;;;28.59;100.00;100178.70;1850319;77;21014;-58
2022/08/05 06:24:57;;;;;;;6.00;5.40;;;;;;;29.34;100.00;100186.47;1850508;77;20924;-62
2022/08/05 06:27:24;;;;;;;6.40;5.35;;;;;;;29.92;100.00;100191.86;1850350;77;20935;-58
2022/08/05 06:29:51;;;;;;;6.97;5.50;;;;;;;30.24;100.00;100184.73;1850259;77;21272;-59
2022/08/05 06:32:18;;;;;;;8.00;5.53;;;;;;;30.36;100.00;100188.69;1850282;77;21436;-59
2022/08/05 06:34:45;;;;;;;7.45;5.20;;;;;;;30.29;100.00;100191.29;1850817;77;21618;-58
2022/08/05 06:37:15;;;;;;;7.37;5.75;;;;;;;30.00;100.00;100192.42;1849210;77;21528;-59
2022/08/05 06:39:43;;;;;;;7.90;5.20;;;;;;;29.78;100.00;100187.43;1849980;77;21311;-59
2022/08/05 06:42:10;;;;;;;5.17;4.67;;;;;;;29.47;100.00;100189.35;1850657;77;22971;-60
2022/08/05 06:44:37;;;;;;;6.33;5.53;;;;;;;29.21;100.00;100184.70;1850701;77;20943;-57
2022/08/05 06:47:05;;;;;;;5.42;4.92;;;;;;;28.92;100.00;100199.91;1850036;77;20998;-65
2022/08/05 06:49:32;;;;;;;5.97;5.37;;;;;;;28.65;100.00;100195.47;1850668;77;21038;-58
2022/08/05 06:51:59;;;;;;;6.47;5.87;;;;;;;28.52;100.00;100201.12;1849627;77;21053;-58
2022/08/05 06:54:27;;;;;;;9.60;6.25;;;;;;;28.46;100.00;100210.95;1850781;77;21547;-58
2022/08/05 06:56:54;;;;;;;7.58;6.22;;;;;;;28.39;100.00;100204.66;1850426;77;20936;-66
2022/08/05 06:59:21;;;;;;;7.08;6.37;;;;;;;28.17;100.00;100214.77;1850050;77;21449;-58
2022/08/05 07:01:48;;;;;;;7.12;6.20;;;;;;;28.11;100.00;100213.31;1851002;77;21185;-58
2022/08/05 07:04:15;;;;;;;6.53;5.90;;;;;;;28.16;100.00;100202.47;1849901;77;20998;-61
2022/08/05 07:06:43;;;;;;;8.03;6.65;;;;;;;28.21;100.00;100211.72;1846885;77;21126;-59
2022/08/05 07:09:10;;;;;;;7.40;5.92;;;;;;;28.36;100.00;100218.09;1843647;77;21489;-59
2022/08/05 07:11:37;;;;;;;7.53;5.87;;;;;;;28.80;100.00;100216.56;1844587;77;21902;-58
2022/08/05 07:16:50;;;;;;;10.15;6.70;;;;;;;29.77;100.00;100205.98;1843982;77;21009;-69
2022/08/05 07:19:19;;;;;;;6.58;5.92;;;;;;;30.11;100.00;100219.23;1844085;77;21474;-58
2022/08/05 07:21:49;;;;;;;6.05;5.08;;;;;;;30.47;100.00;100214.95;1844086;77;20947;-59
2022/08/05 07:24:17;;;;;;;6.15;5.00;;;;;;;30.66;100.00;100215.95;1844846;77;21011;-59
2022/08/05 07:26:44;;;;;;;5.70;4.95;;;;;;;30.62;100.00;100219.05;1844609;77;21000;-66
2022/08/05 07:29:11;;;;;;;5.87;5.28;;;;;;;30.58;100.00;100207.34;1844390;77;20912;-58
2022/08/05 07:31:39;;;;;;;7.78;5.17;;;;;;;30.61;100.00;100223.39;1843990;77;21187;-60
2022/08/05 07:34:06;;;;;;;7.05;5.03;;;;;;;30.67;100.00;100226.16;1844719;77;21873;-58
2022/08/05 07:36:33;;;;;;;6.33;4.08;;;;;;;30.90;100.00;100216.02;1844838;77;20944;-58
2022/08/05 07:39:06;;;;;;;6.90;4.10;;;;;;;31.30;100.00;100215.75;1843952;77;21431;-59
2022/08/05 07:41:34;;;;;;;5.10;3.83;;;;;;;31.72;88.24;100209.95;1843834;77;21030;-59
2022/08/05 07:44:02;;;;;;;6.55;3.72;;;;;;;32.15;77.81;100206.98;1845034;77;21394;-58
2022/08/05 07:46:30;;;;;;;3.70;3.35;;;;;;;32.03;72.36;100214.22;1844575;77;21506;-57
2022/08/05 07:48:58;;;;;;;4.97;3.40;;;;;;;31.81;69.31;100209.89;1843674;77;21488;-58
2022/08/05 07:51:26;;;;;;;7.17;3.72;;;;;;;31.47;72.76;100213.00;1843757;77;20970;-58
2022/08/05 07:53:53;;;;;;;4.85;3.35;;;;;;;31.03;75.50;100212.36;1844608;77;21930;-57
2022/08/05 07:56:23;;;;;;;7.10;3.62;;;;;;;30.59;84.23;100205.44;1844840;77;21119;-60
2022/08/05 07:58:52;;;;;;;6.75;3.90;;;;;;;30.32;83.27;100213.30;1844308;77;20857;-58
2022/08/05 08:01:19;;;;;;;5.37;3.65;;;;;;;30.08;93.59;100207.80;1844751;77;20998;-63
2022/08/05 08:03:46;;;;;;;7.35;3.83;;;;;;;30.14;95.85;100209.77;1843577;77;21010;-59
2022/08/05 08:06:14;;;;;;;4.97;3.75;;;;;;;30.21;95.60;100216.28;1844779;77;21011;-58
2022/08/05 08:08:42;;;;;;;5.00;3.60;;;;;;;30.22;92.34;100222.45;1843969;77;22240;-58
2022/08/05 08:11:09;;;;;;;5.20;4.15;;;;;;;30.09;91.91;100228.19;1844992;77;21727;-58
2022/08/05 08:13:36;;;;;;;4.85;3.98;;;;;;;29.79;93.01;100224.49;1844432;77;21222;-59
2022/08/05 08:16:05;;;;;;;6.55;4.10;;;;;;;29.45;95.24;100217.88;1844810;77;21456;-59
2022/08/05 08:18:32;;;;;;;5.70;4.03;;;;;;;29.06;99.34;100224.80;1843659;77;20995;-59
2022/08/05 08:20:59;;;;;;;6.30;3.80;;;;;;;28.70;100.00;100224.84;1844722;77;22154;-57
2022/08/05 08:23:27;;;;;;;5.50;4.95;;;;;;;28.38;100.00;100222.41;1844445;77;20992;-63
2022/08/05 08:25:54;;;;;;;5.47;4.75;;;;;;;28.13;100.00;100217.25;1844224;77;21101;-58
2022/08/05 08:28:22;;;;;;;8.10;4.92;;;;;;;27.89;100.00;100214.03;1844903;77;21519;-69
2022/08/05 08:30:48;;;;;;;5.62;5.10;;;;;;;27.58;100.00;100207.13;1844181;77;21109;-58
2022/08/05 08:33:16;;;;;;;6.28;5.53;;;;;;;27.47;100.00;100205.73;1844710;77;22136;-58
2022/08/05 08:35:44;;;;;;;5.83;5.22;;;;;;;27.56;100.00;100202.61;1844431;77;21434;-68
2022/08/05 08:38:13;;;;;;;5.55;4.75;;;;;;;27.88;100.00;100201.70;1844114;77;21050;-68
2022/08/05 08:40:41;;;;;;;7.55;5.75;;;;;;;28.26;100.00;100211.63;1844522;77;21070;-58
2022/08/05 08:43:11;;;;;;;5.90;5.30;;;;;;;28.62;100.00;100200.10;1844980;77;20915;-60
2022/08/05 08:45:38;;;;;;;5.95;5.35;;;;;;;29.16;100.00;100187.50;1844644;77;22118;-59
2022/08/05 08:48:05;;;;;;;5.67;5.10;;;;;;;29.84;100.00;100180.00;1844382;77;20987;-69
2022/08/05 08:50:33;;;;;;;5.97;5.00;;;;;;;30.53;100.00;100199.42;1844280;77;21516;-58
2022/08/05 08:53:04;;;;;;;6.87;5.08;;;;;;;31.01;99.92;100191.12;1845020;77;21473;-58
2022/08/05 08:55:34;;;;;;;5.75;4.62;;;;;;;31.43;90.34;100179.18;1844035;77;20920;-60
2022/08/05 09:28:26;;;;;;;7.15;6.20;;;;;;;29.71;99.71;100172.87;1800226;79;26577;-59
2022/08/05 09:30:59;;;;;;;11.57;6.37;;;;;;;29.60;99.15;100193.86;1753590;81;21043;-59
2022/08/05 09:33:26;;;;;;;7.10;5.95;;;;;;;29.46;97.34;100193.15;1753585;81;21234;-59
2022/08/05 09:36:00;;;;;;;5.83;5.22;;;;;;;29.48;94.77;100196.33;1754193;81;20967;-59
2022/08/05 09:38:28;;;;;;;6.92;5.92;;;;;;;29.46;84.05;100198.52;1753791;81;20868;-58
2022/08/05 09:41:05;;;;;;;7.62;5.80;;;;;;;29.20;86.70;100202.44;1753483;81;20963;-60
2022/08/05 09:43:37;;;;;;;10.68;6.65;;;;;;;28.84;90.84;100200.64;1754100;81;20955;-57
2022/08/05 09:46:10;;;;;;;10.63;6.30;;;;;;;28.53;95.75;100203.28;1754547;81;21337;-58
2022/08/05 09:48:35;;;;;;;9.35;6.83;;;;;;;28.15;100.00;100208.93;1753312;81;20935;-67
2022/08/05 09:51:05;;;;;;;8.05;6.10;;;;;;;28.00;100.00;100223.45;1754104;81;21054;-58
2022/08/05 09:53:47;;;;;;;9.15;6.75;;;;;;;27.75;100.00;100214.03;1755038;81;21103;-58
2022/08/05 09:56:16;;;;;;;8.20;7.17;;;;;;;27.52;100.00;100222.48;1753200;81;21000;-57
2022/08/05 09:59:00;;;;;;;8.48;7.35;;;;;;;27.22;100.00;100229.19;1701538;81;21276;-58
2022/08/05 10:01:28;;;;;;;10.80;7.28;;;;;;;26.99;100.00;100232.77;1754357;81;20927;-63
2022/08/05 10:04:06;;;;;;;10.72;8.48;;;;;;;26.67;100.00;100250.40;1754205;81;20932;-64
2022/08/05 10:06:33;;;;;;;9.10;7.45;;;;;;;25.86;100.00;100251.67;1753698;81;20993;-61
2022/08/05 10:09:15;;;;;;;11.80;7.47;;;;;;;24.97;100.00;100255.16;1754537;81;22456;-59
2022/08/05 10:11:43;;;;;;;9.33;7.28;;;;;;;24.37;100.00;100261.11;1754154;81;21224;-59
2022/08/05 10:14:25;;;;;;;12.30;7.60;;;;;;;23.91;100.00;100255.44;1753738;81;21564;-59
2022/08/05 10:16:55;;;;;;;10.03;7.27;;;;;;;23.69;100.00;100260.30;1753694;81;21394;-59
2022/08/05 10:19:23;;;;;;;9.93;8.13;;;;;;;23.57;100.00;100262.42;1753514;81;21023;-61
2022/08/05 10:21:51;;;;;;;9.60;6.70;;;;;;;23.57;100.00;100265.88;1752626;81;21010;-60
2022/08/05 10:24:19;;;;;;;9.20;7.33;;;;;;;23.65;100.00;100260.55;1753690;81;21555;-63
2022/08/05 10:26:48;;;;;;;8.30;6.47;;;;;;;23.73;100.00;100258.69;1752637;81;20943;-59
2022/08/05 10:29:16;;;;;;;6.03;5.43;;;;;;;23.86;100.00;100257.31;1748416;81;20988;-59
2022/08/05 10:31:43;;;;;;;6.43;5.03;;;;;;;23.98;100.00;100246.63;1748803;81;21098;-58
2022/08/05 10:34:11;;;;;;;6.03;5.43;;;;;;;24.10;100.00;100252.18;1747740;81;20999;-63
2022/08/05 10:36:39;;;;;;;6.77;5.30;;;;;;;24.19;100.00;100245.20;1748502;81;21222;-58
2022/08/05 10:39:20;;;;;;;6.17;4.87;;;;;;;24.36;100.00;100247.00;1748568;81;20984;-59
2022/08/05 10:42:00;;;;;;;;;;;;;;;24.50;100.00;100243.99;1750435;82;21489;-63
2022/08/05 10:44:27;;;;;;;5.47;4.50;;;;;;;24.60;100.00;100233.03;1748577;81;20616;-59
2022/08/05 10:46:55;;;;;;;5.40;4.00;;;;;;;24.72;100.00;100242.26;1748534;82;21446;-61
2022/08/05 10:49:24;;;;;;;5.28;4.45;;;;;;;24.94;100.00;100243.71;1748577;82;21882;-58
2022/08/05 10:51:56;;;;;;;4.20;3.23;;;;;;;25.10;100.00;100252.41;1747793;82;21563;-61
2022/08/05 10:54:24;;;;;;;3.80;3.40;;;;;;;25.32;100.00;100236.73;1748242;82;21046;-59
2022/08/05 10:56:55;;;;;;;3.75;3.08;;;;;;;25.52;100.00;100240.28;1747910;82;21299;-58
2022/08/05 10:59:26;;;;;;;4.65;3.85;;;;;;;25.80;100.00;100233.32;1748566;82;20935;-58
2022/08/05 11:02:09;;;;;;;4.42;3.80;;;;;;;26.11;100.00;100233.22;1748229;82;21595;-58
2022/08/05 11:04:48;;;;;;;4.62;3.77;;;;;;;26.29;100.00;100231.66;1748353;82;21564;-59
2022/08/05 11:07:17;;;;;;;4.45;3.37;;;;;;;26.52;100.00;100231.36;1716440;82;21026;-61
2022/08/05 11:09:49;;;;;;;4.05;3.30;;;;;;;26.68;100.00;100234.59;1747993;82;21011;-61
2022/08/05 11:12:43;;;;;;;4.45;3.62;;;;;;;26.87;100.00;100232.69;1747973;82;21073;-58
2022/08/05 11:15:18;;;;;;;4.37;3.98;;;;;;;26.96;100.00;100232.02;1748488;82;21228;-59
2022/08/05 11:17:53;;;;;;;7.00;4.08;;;;;;;27.08;100.00;100232.34;1748129;82;21116;-60
2022/08/05 11:20:46;;;;;;;5.12;4.53;;;;;;;27.14;100.00;100228.53;1748208;82;21023;-70
2022/08/05 11:23:35;;;;;;;5.60;4.97;;;;;;;27.11;100.00;100231.79;1744802;82;21055;-60
2022/08/05 11:26:20;;;;;;;6.03;5.33;;;;;;;27.18;100.00;100229.53;1747360;82;21075;-68
2022/08/05 11:28:48;;;;;;;5.45;4.92;;;;;;;27.21;100.00;100226.27;1748064;82;21242;-59
2022/08/05 11:31:29;;;;;;;6.03;4.83;;;;;;;27.20;100.00;100226.03;1748722;82;21806;-58
2022/08/05 11:34:06;;;;;;;6.83;4.83;;;;;;;27.20;100.00;100223.87;1748393;82;23209;-59
2022/08/05 11:36:49;;;;;;;5.40;4.90;;;;;;;27.15;100.00;100231.45;1747986;82;21489;-67
2022/08/05 11:39:47;;;;;;;6.00;5.33;;;;;;;27.14;100.00;100236.56;1748258;82;20988;-68
2022/08/05 11:42:16;;;;;;;6.83;5.85;;;;;;;27.24;100.00;100228.36;1747965;82;21733;-59
2022/08/05 11:44:43;;;;;;;8.85;5.25;;;;;;;27.64;100.00;100217.42;1748055;82;21074;-63
2022/08/05 11:47:10;;;;;;;10.32;5.90;;;;;;;27.97;100.00;100216.00;1747253;82;20983;-62
2022/08/05 11:49:38;;;;;;;6.28;5.70;;;;;;;28.26;100.00;100212.16;1697427;82;21043;-59
2022/08/05 11:52:05;;;;;;;6.40;5.80;;;;;;;28.58;100.00;100201.81;1748133;82;20920;-67
2022/08/05 11:54:33;;;;;;;6.10;5.50;;;;;;;28.79;100.00;100202.91;1748887;82;22388;-59
2022/08/05 11:57:02;;;;;;;6.50;5.90;;;;;;;29.11;100.00;100207.77;1747995;82;21566;-60
2022/08/05 11:59:32;;;;;;;7.15;5.95;;;;;;;29.12;100.00;100213.37;1748398;82;21118;-59
2022/08/05 12:02:06;;;;;;;8.93;5.97;;;;;;;29.12;100.00;100213.37;1721789;82;20932;-61